Погода Пащинана неделю

Подкарпатское воеводство, Польша

23 - 29 мая
  • 23мая
    Сегодня
    +12°
    +19°
    Пасмурно, дожди с грозами
    ВремяПогодаТемператураВлажностьДавлениеВетер, м/сВероятность осадков
    02:00Практически безоблачно+14°C96 %740 мм1.9 м/с17 %
    05:00Облачно с прояснениями+14°C97 %740 мм1.7 м/с27 %
    08:00Небольшая облачность+17°C84 %741 мм1.0 м/с34 %
    11:00Пасмурно, небольшой дождь+19°C67 %742 мм0.9 м/с51 %
    14:00Пасмурно, дожди с грозами+17°C79 %742 мм1.5 м/с67 %
    17:00Небольшая облачность, ливень+19°C78 %742 мм0.7 м/с69 %
    20:00Облачно с прояснениями+18°C86 %743 мм0.4 м/с30 %
    23:00Ясно и безоблачно+15°C96 %744 мм1.0 м/с3 %
  • 24мая
    Пятница
    +14°
    +25°
    Облачно с прояснениями
    ВремяПогодаТемператураВлажностьДавлениеВетер, м/сВероятность осадков
    02:00Небольшая облачность+13°C97 %744 мм0.8 м/с2 %
    05:00Облачно с прояснениями+12°C99 %744 мм1.3 м/с2 %
    08:00Практически безоблачно+17°C91 %745 мм0.9 м/с2 %
    11:00Практически безоблачно+23°C64 %745 мм2.1 м/с4 %
    14:00Облачно с прояснениями+25°C49 %745 мм4.9 м/с37 %
    17:00Практически безоблачно+24°C51 %744 мм3.5 м/с26 %
    20:00Практически безоблачно+21°C66 %745 мм3.4 м/с7 %
    23:00Ясно и безоблачно+17°C82 %745 мм3.2 м/с2 %
  • 25мая
    Суббота
    +12°
    +26°
    Небольшая облачность
    ВремяПогодаТемператураВлажностьДавлениеВетер, м/сВероятность осадков
    02:00Ясно и безоблачно+14°C87 %745 мм2.6 м/с2 %
    05:00Практически безоблачно+14°C89 %745 мм2.9 м/с2 %
    08:00Облачно с прояснениями+18°C77 %746 мм2.9 м/с2 %
    11:00Облачно с прояснениями+24°C57 %746 мм2.7 м/с9 %
    14:00Небольшая облачность+24°C51 %745 мм3.5 м/с37 %
    17:00Небольшая облачность+25°C42 %745 мм3.6 м/с29 %
    20:00Ясно и безоблачно+20°C65 %745 мм2.2 м/с11 %
    23:00Ясно и безоблачно+16°C86 %745 мм1.7 м/с2 %
  • 26мая
    Воскресенье
    +12°
    +25°
    Небольшая облачность
    ВремяПогодаТемператураВлажностьДавлениеВетер, м/сВероятность осадков
    02:00Ясно и безоблачно+13°C93 %745 мм1.7 м/с2 %
    05:00Ясно и безоблачно+13°C91 %745 мм2.2 м/с2 %
    08:00Практически безоблачно+18°C71 %746 мм1.2 м/с2 %
    11:00Практически безоблачно+24°C48 %747 мм0.6 м/с11 %
    14:00Небольшая облачность+25°C46 %746 мм1.8 м/с34 %
    17:00Облачно с прояснениями, ливень+23°C58 %746 мм2.5 м/с54 %
    20:00Ясно и безоблачно+20°C72 %747 мм1.0 м/с8 %
    23:00Практически безоблачно+17°C78 %747 мм0.6 м/с2 %
  • 27мая
    Понедельник
    +10°
    +26°
    Ясно и безоблачно
    ВремяПогодаТемператураВлажностьДавлениеВетер, м/сВероятность осадков
    02:00Ясно и безоблачно+15°C84 %747 мм0.7 м/с2 %
    05:00Ясно и безоблачно+13°C93 %747 мм0.5 м/с3 %
    08:00Практически безоблачно+18°C77 %748 мм1.4 м/с3 %
    11:00Ясно и безоблачно+25°C31 %748 мм4.1 м/с12 %
    14:00Ясно и безоблачно+25°C27 %747 мм4.3 м/с21 %
    17:00Ясно и безоблачно+24°C30 %746 мм4.6 м/с26 %
    20:00Ясно и безоблачно+20°C54 %746 мм2.2 м/с7 %
    23:00Практически безоблачно+15°C72 %746 мм1.8 м/с2 %
Мы используем cookies
Соглашаюсь